Terminal Aerodrome Forecast
Issued by NWS Melbourne, FL

Home | Current Version | Previous Version | Text Only | Print | Product List | Glossary On
Versions: 1 2 3 4 5 6 7 8 9 10 11 12 13 14 15 16
000
FTUS42 KMLB 281139
TAFDAB
TAF
KDAB 281139Z 2812/2912 07010KT P6SM VCSH SCT020 SCT060 SCT130
     FM281500 07012G18KT P6SM SCT035 SCT050
     FM290000 05006KT P6SM SCT025=

USA.gov is the U.S. government's official web portal to all federal, state and local government web resources and services.